地図

経路データ

SID SEASON NUMBER BASIN SUBBASIN NAME ISO_TIME NATURE LAT LON WMO_WIND WMO_PRES WMO_AGENCY TRACK_TYPE DIST2LAND LANDFALL IFLAG USA_AGENCY USA_ATCF_ID USA_LAT USA_LON USA_RECORD USA_STATUS USA_WIND USA_PRES USA_SSHS USA_R34_NE USA_R34_SE USA_R34_SW USA_R34_NW USA_R50_NE USA_R50_SE USA_R50_SW USA_R50_NW USA_R64_NE USA_R64_SE USA_R64_SW USA_R64_NW USA_POCI USA_ROCI USA_RMW USA_EYE TOKYO_LAT TOKYO_LON TOKYO_GRADE TOKYO_WIND TOKYO_PRES TOKYO_R50_DIR TOKYO_R50_LONG TOKYO_R50_SHORT TOKYO_R30_DIR TOKYO_R30_LONG TOKYO_R30_SHORT TOKYO_LAND CMA_LAT CMA_LON CMA_CAT CMA_WIND CMA_PRES HKO_LAT HKO_LON HKO_CAT HKO_WIND HKO_PRES NEWDELHI_LAT NEWDELHI_LON NEWDELHI_GRADE NEWDELHI_WIND NEWDELHI_PRES NEWDELHI_CI NEWDELHI_DP NEWDELHI_POCI REUNION_LAT REUNION_LON REUNION_TYPE REUNION_WIND REUNION_PRES REUNION_TNUM REUNION_CI REUNION_RMW REUNION_R34_NE REUNION_R34_SE REUNION_R34_SW REUNION_R34_NW REUNION_R50_NE REUNION_R50_SE REUNION_R50_SW REUNION_R50_NW REUNION_R64_NE REUNION_R64_SE REUNION_R64_SW REUNION_R64_NW BOM_LAT BOM_LON BOM_TYPE BOM_WIND BOM_PRES BOM_TNUM BOM_CI BOM_RMW BOM_R34_NE BOM_R34_SE BOM_R34_SW BOM_R34_NW BOM_R50_NE BOM_R50_SE BOM_R50_SW BOM_R50_NW BOM_R64_NE BOM_R64_SE BOM_R64_SW BOM_R64_NW BOM_ROCI BOM_POCI BOM_EYE BOM_POS_METHOD BOM_PRES_METHOD NADI_LAT NADI_LON NADI_CAT NADI_WIND NADI_PRES WELLINGTON_LAT WELLINGTON_LON WELLINGTON_WIND WELLINGTON_PRES DS824_LAT DS824_LON DS824_STAGE DS824_WIND DS824_PRES TD9636_LAT TD9636_LON TD9636_STAGE TD9636_WIND TD9636_PRES TD9635_LAT TD9635_LON TD9635_WIND TD9635_PRES TD9635_ROCI NEUMANN_LAT NEUMANN_LON NEUMANN_CLASS NEUMANN_WIND NEUMANN_PRES MLC_LAT MLC_LON MLC_CLASS MLC_WIND MLC_PRES USA_GUST BOM_GUST BOM_GUST_PER REUNION_GUST REUNION_GUST_PER USA_SEAHGT USA_SEARAD_NE USA_SEARAD_SE USA_SEARAD_SW USA_SEARAD_NW STORM_SPEED STORM_DIR
1877001S12055 1877 1 SI MM NOT_NAMED 1877-01-01 06:00:00 NR -12.2000 54.9000 reunion main 548 535 _____O________ -1 -12.2000 54.9000 99 9.90000 2 239
1877001S12055 1877 1 SI MM NOT_NAMED 1877-01-01 09:00:00 NR -12.2546 54.8134 main 535 524 _____P________ -1 -12.2546 54.8134 99 2 237
1877001S12055 1877 1 SI MM NOT_NAMED 1877-01-01 12:00:00 NR -12.3134 54.7220 main 524 511 _____P________ -1 -12.3134 54.7220 99 2 236
1877001S12055 1877 1 SI MM NOT_NAMED 1877-01-01 15:00:00 NR -12.3810 54.6209 main 511 498 _____P________ -1 -12.3810 54.6209 99 3 235
1877001S12055 1877 1 SI MM NOT_NAMED 1877-01-01 18:00:00 NR -12.4615 54.5053 main 498 484 _____P________ -1 -12.4615 54.5053 99 3 234
1877001S12055 1877 1 SI MM NOT_NAMED 1877-01-01 21:00:00 NR -12.5594 54.3703 main 484 460 _____P________ -1 -12.5594 54.3703 99 4 233
1877001S12055 1877 1 SI MM NOT_NAMED 1877-01-02 00:00:00 NR -12.6789 54.2111 main 460 436 _____P________ -1 -12.6789 54.2111 99 4 232
1877001S12055 1877 1 SI MM NOT_NAMED 1877-01-02 03:00:00 NR -12.8243 54.0226 main 436 410 _____P________ -1 -12.8243 54.0226 99 5 231
1877001S12055 1877 1 SI MM NOT_NAMED 1877-01-02 06:00:00 NR -13.0000 53.8000 reunion main 410 384 _____O________ -1 -13.0000 53.8000 99 9.90000 6 231
1877001S12055 1877 1 SI MM NOT_NAMED 1877-01-02 09:00:00 NR -13.2080 53.5407 main 373 348 _____P________ -1 -13.2080 53.5407 99 7 230
1877001S12055 1877 1 SI MM NOT_NAMED 1877-01-02 12:00:00 NR -13.4418 53.2525 main 348 313 _____P________ -1 -13.4418 53.2525 99 8 230
1877001S12055 1877 1 SI MM NOT_NAMED 1877-01-02 15:00:00 NR -13.6926 52.9456 main 302 268 _____P________ -1 -13.6926 52.9456 99 8 230
1877001S12055 1877 1 SI MM NOT_NAMED 1877-01-02 18:00:00 NR -13.9518 52.6306 main 262 223 _____P________ -1 -13.9518 52.6306 99 8 230
1877001S12055 1877 1 SI MM NOT_NAMED 1877-01-02 21:00:00 NR -14.2106 52.3178 main 223 184 _____P________ -1 -14.2106 52.3178 99 8 229
1877001S12055 1877 1 SI MM NOT_NAMED 1877-01-03 00:00:00 NR -14.4607 52.0180 main 179 150 _____P________ -1 -14.4607 52.0180 99 7 229
1877001S12055 1877 1 SI MM NOT_NAMED 1877-01-03 03:00:00 NR -14.6933 51.7418 main 140 112 _____P________ -1 -14.6933 51.7418 99 7 229
1877001S12055 1877 1 SI MM NOT_NAMED 1877-01-03 06:00:00 NR -14.9000 51.5000 reunion main 112 86 _____O________ -1 -14.9000 51.5000 99 9.90000 6 228
1877001S12055 1877 1 SI MM NOT_NAMED 1877-01-03 09:00:00 NR -15.0746 51.3006 main 86 64 _____P________ -1 -15.0746 51.3006 99 5 227
1877001S12055 1877 1 SI MM NOT_NAMED 1877-01-03 12:00:00 NR -15.2192 51.1409 main 64 53 _____P________ -1 -15.2192 51.1409 99 4 226
1877001S12055 1877 1 SI MM NOT_NAMED 1877-01-03 15:00:00 NR -15.3383 51.0152 main 53 42 _____P________ -1 -15.3383 51.0152 99 3 225
1877001S12055 1877 1 SI MM NOT_NAMED 1877-01-03 18:00:00 NR -15.4361 50.9180 main 42 34 _____P________ -1 -15.4361 50.9180 99 2 222
1877001S12055 1877 1 SI MM NOT_NAMED 1877-01-03 21:00:00 NR -15.5169 50.8436 main 34 34 _____P________ -1 -15.5169 50.8436 99 2 220
1877001S12055 1877 1 SI MM NOT_NAMED 1877-01-04 00:00:00 NR -15.5850 50.7862 main 39 30 _____P________ -1 -15.5850 50.7862 99 2 216
1877001S12055 1877 1 SI MM NOT_NAMED 1877-01-04 03:00:00 NR -15.6446 50.7403 main 30 30 _____P________ -1 -15.6446 50.7403 99 1 213
1877001S12055 1877 1 SI MM NOT_NAMED 1877-01-04 06:00:00 NR -15.7000 50.7000 reunion main 34 _____O________ -1 -15.7000 50.7000 99 9.90000 1 216

IBTrACS Databaseについて

本データベースは、米国NOAAが公開する1842年以降の世界の熱帯低気圧のベストトラックデータアーカイブInternational Best Track Archive for Climate Stewardship (IBTrACS)を、ウェブで閲覧しやすい形式に変換したものです。

最終更新日:2021-12-03